Neodesha, Kansas
Current Conditions -  °F | °C
As of 9:52 AM on Friday 24 Oct 2014 (Local Time) from KPPF Reporting Station
Clear Clear  
Wind Chill: 17°   Ceiling: Unl
Heat Index: 17°   Visibility: 10mi
Dew Point: 14°   Wind: 9mph
Humidity: 81%   Direction: 210°SSW
Pressure: 30.12"   Gusts: NA
Location:  37.42°N, 95.68°W
Report Text: KPPF 241452Z AUTO 21008KT 10SM CLR 17/14 A3012 RMK AO2 SLP194 T01720139 53006
Loading
Personal Weather Stations






























Interactive Weather Map
Tropical Storm Tracking
New forecast layout! Learn more

10-Day Weather Forecast

Advertisements
Track Severe Weather on mobile